Aeroporto :
LOGIN :

Iscrizione | Disclaimer

   EN    FR    IT 

 










Sommario :    VFR   VFR Marginale   IFR   IFR Intensivo   IFR Molto Intensivo
Visibilità : 
Base nubi : 
>= 8 km
>= 3000ft
5 / 8 km
1000 / 3000 ft
1500m / 5 km
500 / 1000 ft
800 / 1500m
200 / 500 ft
< 800m
< 200 ft
Simboli :   Temporali  Nebbia  Neve Forte  Precipitazioni Forti  Vento > 20 kt
SIGMETs :   Varie  Temporali  Ghiacco  Turbolenza  Onda orograficha  Ceneri Vulcaniche







- Altitudine del aeroporto : 257 ft
- Codice IATA : MAN
- Carte del aeroporto


EGCC - Manchester

ULTIMO METAR :
  • 170250Z AUTO 17005KT 080V230 9999 SCT016 09/06 Q1013 TEMPO BKN014

METARs OBSOLETI :
  • 170220Z AUTO 17009KT 130V220 9999 FEW016 09/06 Q1014 TEMPO BKN014
  • 170150Z AUTO 17007KT 110V230 9999 SCT015 10/06 Q1014 TEMPO BKN014
  • 170120Z AUTO 17007KT 130V210 9999 FEW016 10/06 Q1014 NOSIG
  • 170050Z AUTO 18009KT 140V200 9999 NCD 10/06 Q1015 NOSIG
  • 170020Z AUTO 18008KT 140V210 9999 NCD 10/06 Q1015

TAF TAF EGCC
Valido dal 17 a 00 ore il 18 a 06 ore UTC


162256Z 1700/1806 17012KT 9999 FEW012 SCT025
TEMPO 1700/1708 BKN012
PROB30
TEMPO 1700/1710 18015G25KT
PROB30
TEMPO 1702/1708 5000 BR BKN006
PROB30
TEMPO 1713/1716 7000 SHRA
ATIS : +44 161 499 2324
Nessun NOTAM noto per questo aeroporto.



MetMap, La meteo Aeronautica in un colpo d'occhio ! - Copyright ORBIFLY Dicembre 2007 - Disclaimer

ORBIFLY MET'MAP TEAM :

Programmazione e sviluppo : Alexandra Zaïnal
Concezione e sviluppo : Baudouin d'Aumeries
Co-Programmazione e sviluppo : Marc-Olivier Méhu
Supporto tecnico e logistico : Manuel Goepfert
Aiuto per la traduzione : Arnaldo La Scala

Contatto : metmap@orbifly.com




FONTI E CREDITI :

   NOAA